sensor_id;sensor_type;location;lat;lon;timestamp;P1;durP1;ratioP1;P2;durP2;ratioP2
77061;SDS011;65989;51.686;5.138;2023-05-23T00:01:53;23.45;;;14.98;;
77061;SDS011;65989;51.686;5.138;2023-05-23T00:04:19;26.73;;;15.87;;
77061;SDS011;65989;51.686;5.138;2023-05-23T00:06:44;25.73;;;15.53;;
77061;SDS011;65989;51.686;5.138;2023-05-23T00:09:14;28.30;;;15.95;;
77061;SDS011;65989;51.686;5.138;2023-05-23T00:11:40;30.23;;;16.87;;
77061;SDS011;65989;51.686;5.138;2023-05-23T00:14:09;28.45;;;17.08;;
77061;SDS011;65989;51.686;5.138;2023-05-23T00:16:34;26.17;;;16.60;;
77061;SDS011;65989;51.686;5.138;2023-05-23T00:19:05;30.13;;;16.93;;
77061;SDS011;65989;51.686;5.138;2023-05-23T00:21:30;31.07;;;17.37;;
77061;SDS011;65989;51.686;5.138;2023-05-23T00:23:56;28.83;;;17.27;;
77061;SDS011;65989;51.686;5.138;2023-05-23T00:26:22;28.67;;;16.37;;
77061;SDS011;65989;51.686;5.138;2023-05-23T00:28:48;38.13;;;16.60;;
77061;SDS011;65989;51.686;5.138;2023-05-23T00:31:13;31.80;;;17.10;;
77061;SDS011;65989;51.686;5.138;2023-05-23T00:33:38;28.63;;;16.03;;
77061;SDS011;65989;51.686;5.138;2023-05-23T00:36:04;32.83;;;17.97;;
77061;SDS011;65989;51.686;5.138;2023-05-23T00:38:30;32.47;;;17.47;;
77061;SDS011;65989;51.686;5.138;2023-05-23T00:40:55;33.67;;;19.47;;
77061;SDS011;65989;51.686;5.138;2023-05-23T00:43:20;41.00;;;19.63;;
77061;SDS011;65989;51.686;5.138;2023-05-23T00:45:47;40.50;;;20.10;;
77061;SDS011;65989;51.686;5.138;2023-05-23T00:48:12;35.90;;;20.42;;
77061;SDS011;65989;51.686;5.138;2023-05-23T00:50:38;38.65;;;19.98;;
77061;SDS011;65989;51.686;5.138;2023-05-23T00:53:04;34.63;;;18.50;;
77061;SDS011;65989;51.686;5.138;2023-05-23T00:55:30;44.40;;;21.13;;
77061;SDS011;65989;51.686;5.138;2023-05-23T00:57:55;39.87;;;19.17;;
77061;SDS011;65989;51.686;5.138;2023-05-23T01:00:24;40.45;;;18.20;;
77061;SDS011;65989;51.686;5.138;2023-05-23T01:02:50;32.85;;;17.70;;
77061;SDS011;65989;51.686;5.138;2023-05-23T01:05:16;34.63;;;17.17;;
77061;SDS011;65989;51.686;5.138;2023-05-23T01:07:45;36.72;;;17.38;;
77061;SDS011;65989;51.686;5.138;2023-05-23T01:10:10;35.03;;;17.33;;
77061;SDS011;65989;51.686;5.138;2023-05-23T01:20:11;29.83;;;14.10;;
77061;SDS011;65989;51.686;5.138;2023-05-23T01:22:41;29.10;;;15.80;;
77061;SDS011;65989;51.686;5.138;2023-05-23T01:28:01;32.38;;;15.80;;
77061;SDS011;65989;51.686;5.138;2023-05-23T01:30:27;33.60;;;16.08;;
77061;SDS011;65989;51.686;5.138;2023-05-23T01:32:54;30.58;;;15.00;;
77061;SDS011;65989;51.686;5.138;2023-05-23T01:35:24;24.37;;;14.53;;
77061;SDS011;65989;51.686;5.138;2023-05-23T01:37:55;30.17;;;15.88;;
77061;SDS011;65989;51.686;5.138;2023-05-23T01:40:21;27.75;;;15.48;;
77061;SDS011;65989;51.686;5.138;2023-05-23T01:42:47;30.38;;;15.30;;
77061;SDS011;65989;51.686;5.138;2023-05-23T01:45:12;24.90;;;13.00;;
77061;SDS011;65989;51.686;5.138;2023-05-23T01:47:38;27.43;;;12.30;;
77061;SDS011;65989;51.686;5.138;2023-05-23T01:50:04;29.10;;;13.15;;
77061;SDS011;65989;51.686;5.138;2023-05-23T01:52:30;25.75;;;13.25;;
77061;SDS011;65989;51.686;5.138;2023-05-23T01:54:55;26.13;;;12.60;;
77061;SDS011;65989;51.686;5.138;2023-05-23T01:57:21;24.07;;;12.37;;
77061;SDS011;65989;51.686;5.138;2023-05-23T01:59:46;26.90;;;12.53;;
77061;SDS011;65989;51.686;5.138;2023-05-23T02:02:12;28.27;;;13.00;;
77061;SDS011;65989;51.686;5.138;2023-05-23T02:04:37;26.50;;;12.53;;
77061;SDS011;65989;51.686;5.138;2023-05-23T02:07:02;26.23;;;12.23;;
77061;SDS011;65989;51.686;5.138;2023-05-23T02:09:27;27.97;;;12.27;;
77061;SDS011;65989;51.686;5.138;2023-05-23T02:11:53;23.73;;;11.93;;
77061;SDS011;65989;51.686;5.138;2023-05-23T02:14:20;22.80;;;11.33;;
77061;SDS011;65989;51.686;5.138;2023-05-23T02:16:45;20.70;;;10.50;;
77061;SDS011;65989;51.686;5.138;2023-05-23T02:19:10;25.27;;;11.47;;
77061;SDS011;65989;51.686;5.138;2023-05-23T02:21:36;27.23;;;11.27;;
77061;SDS011;65989;51.686;5.138;2023-05-23T02:24:02;20.92;;;11.75;;
77061;SDS011;65989;51.686;5.138;2023-05-23T02:26:27;21.07;;;11.00;;
77061;SDS011;65989;51.686;5.138;2023-05-23T02:28:52;21.30;;;10.10;;
77061;SDS011;65989;51.686;5.138;2023-05-23T02:31:18;22.90;;;10.27;;
77061;SDS011;65989;51.686;5.138;2023-05-23T02:33:43;17.60;;;9.37;;
77061;SDS011;65989;51.686;5.138;2023-05-23T02:36:08;19.73;;;9.50;;
77061;SDS011;65989;51.686;5.138;2023-05-23T02:38:33;24.03;;;9.43;;
77061;SDS011;65989;51.686;5.138;2023-05-23T02:40:59;16.63;;;7.60;;
77061;SDS011;65989;51.686;5.138;2023-05-23T02:43:24;16.60;;;8.67;;
77061;SDS011;65989;51.686;5.138;2023-05-23T02:45:50;15.27;;;7.77;;
77061;SDS011;65989;51.686;5.138;2023-05-23T02:48:15;13.73;;;7.80;;
77061;SDS011;65989;51.686;5.138;2023-05-23T02:50:40;17.38;;;7.75;;
77061;SDS011;65989;51.686;5.138;2023-05-23T02:53:06;13.83;;;7.30;;
77061;SDS011;65989;51.686;5.138;2023-05-23T02:55:31;14.97;;;7.67;;
77061;SDS011;65989;51.686;5.138;2023-05-23T02:57:57;13.63;;;7.40;;
77061;SDS011;65989;51.686;5.138;2023-05-23T03:00:25;17.75;;;7.10;;
77061;SDS011;65989;51.686;5.138;2023-05-23T03:02:50;14.07;;;6.87;;
77061;SDS011;65989;51.686;5.138;2023-05-23T03:05:15;16.27;;;7.43;;
77061;SDS011;65989;51.686;5.138;2023-05-23T03:07:41;16.80;;;7.60;;
77061;SDS011;65989;51.686;5.138;2023-05-23T03:10:06;13.87;;;7.53;;
77061;SDS011;65989;51.686;5.138;2023-05-23T03:12:32;13.57;;;7.55;;
77061;SDS011;65989;51.686;5.138;2023-05-23T03:14:57;16.43;;;7.97;;
77061;SDS011;65989;51.686;5.138;2023-05-23T03:17:23;15.77;;;8.53;;
77061;SDS011;65989;51.686;5.138;2023-05-23T03:19:49;16.23;;;8.90;;
77061;SDS011;65989;51.686;5.138;2023-05-23T03:22:14;17.43;;;8.60;;
77061;SDS011;65989;51.686;5.138;2023-05-23T03:24:39;18.67;;;9.27;;
77061;SDS011;65989;51.686;5.138;2023-05-23T03:27:05;17.40;;;8.90;;
77061;SDS011;65989;51.686;5.138;2023-05-23T03:29:30;24.83;;;9.43;;
77061;SDS011;65989;51.686;5.138;2023-05-23T03:31:56;18.75;;;8.85;;
77061;SDS011;65989;51.686;5.138;2023-05-23T03:34:22;20.60;;;8.23;;
77061;SDS011;65989;51.686;5.138;2023-05-23T03:36:47;23.25;;;9.20;;
77061;SDS011;65989;51.686;5.138;2023-05-23T03:39:13;19.73;;;8.90;;
77061;SDS011;65989;51.686;5.138;2023-05-23T03:41:38;21.43;;;8.93;;
77061;SDS011;65989;51.686;5.138;2023-05-23T03:44:03;22.17;;;9.27;;
77061;SDS011;65989;51.686;5.138;2023-05-23T03:46:28;19.00;;;8.43;;
77061;SDS011;65989;51.686;5.138;2023-05-23T03:48:54;25.17;;;10.03;;
77061;SDS011;65989;51.686;5.138;2023-05-23T03:51:19;22.67;;;9.33;;
77061;SDS011;65989;51.686;5.138;2023-05-23T03:53:44;22.75;;;9.75;;
77061;SDS011;65989;51.686;5.138;2023-05-23T03:56:10;28.77;;;9.20;;
77061;SDS011;65989;51.686;5.138;2023-05-23T03:58:35;22.70;;;9.23;;
77061;SDS011;65989;51.686;5.138;2023-05-23T04:01:00;23.33;;;8.90;;
77061;SDS011;65989;51.686;5.138;2023-05-23T04:03:25;27.67;;;9.17;;
77061;SDS011;65989;51.686;5.138;2023-05-23T04:05:51;27.27;;;10.70;;
77061;SDS011;65989;51.686;5.138;2023-05-23T04:08:16;27.20;;;10.30;;
77061;SDS011;65989;51.686;5.138;2023-05-23T04:10:45;25.80;;;10.50;;
77061;SDS011;65989;51.686;5.138;2023-05-23T04:13:11;22.43;;;10.33;;
77061;SDS011;65989;51.686;5.138;2023-05-23T04:15:36;25.40;;;10.10;;
77061;SDS011;65989;51.686;5.138;2023-05-23T04:18:01;28.73;;;10.20;;
77061;SDS011;65989;51.686;5.138;2023-05-23T04:20:27;27.13;;;10.73;;
77061;SDS011;65989;51.686;5.138;2023-05-23T04:22:52;29.53;;;12.57;;
77061;SDS011;65989;51.686;5.138;2023-05-23T04:25:18;29.30;;;11.77;;
77061;SDS011;65989;51.686;5.138;2023-05-23T04:27:44;38.72;;;13.25;;
77061;SDS011;65989;51.686;5.138;2023-05-23T04:30:11;35.20;;;11.60;;
77061;SDS011;65989;51.686;5.138;2023-05-23T04:32:36;30.20;;;11.10;;
77061;SDS011;65989;51.686;5.138;2023-05-23T04:35:02;24.07;;;9.63;;
77061;SDS011;65989;51.686;5.138;2023-05-23T04:37:28;24.30;;;9.82;;
77061;SDS011;65989;51.686;5.138;2023-05-23T04:39:53;26.80;;;8.87;;
77061;SDS011;65989;51.686;5.138;2023-05-23T04:42:19;26.43;;;8.70;;
77061;SDS011;65989;51.686;5.138;2023-05-23T04:44:48;27.10;;;8.88;;
77061;SDS011;65989;51.686;5.138;2023-05-23T04:47:14;25.53;;;8.13;;
77061;SDS011;65989;51.686;5.138;2023-05-23T04:49:39;27.58;;;8.25;;
77061;SDS011;65989;51.686;5.138;2023-05-23T04:52:06;25.55;;;6.80;;
77061;SDS011;65989;51.686;5.138;2023-05-23T04:54:31;23.37;;;7.73;;
77061;SDS011;65989;51.686;5.138;2023-05-23T04:56:57;28.60;;;7.43;;
77061;SDS011;65989;51.686;5.138;2023-05-23T04:59:22;24.90;;;7.07;;
77061;SDS011;65989;51.686;5.138;2023-05-23T05:01:47;23.70;;;7.03;;
77061;SDS011;65989;51.686;5.138;2023-05-23T05:04:12;23.70;;;6.93;;
77061;SDS011;65989;51.686;5.138;2023-05-23T05:06:39;27.20;;;7.40;;
77061;SDS011;65989;51.686;5.138;2023-05-23T05:09:05;20.53;;;6.67;;
77061;SDS011;65989;51.686;5.138;2023-05-23T05:11:30;24.20;;;6.87;;
77061;SDS011;65989;51.686;5.138;2023-05-23T05:13:55;15.73;;;6.50;;
77061;SDS011;65989;51.686;5.138;2023-05-23T05:16:20;20.73;;;5.97;;
77061;SDS011;65989;51.686;5.138;2023-05-23T05:18:46;27.15;;;6.80;;
77061;SDS011;65989;51.686;5.138;2023-05-23T05:21:11;22.73;;;6.93;;
77061;SDS011;65989;51.686;5.138;2023-05-23T05:23:36;23.37;;;6.90;;
77061;SDS011;65989;51.686;5.138;2023-05-23T05:26:02;27.97;;;6.80;;
77061;SDS011;65989;51.686;5.138;2023-05-23T05:28:29;22.20;;;6.40;;
77061;SDS011;65989;51.686;5.138;2023-05-23T05:30:54;20.17;;;6.07;;
77061;SDS011;65989;51.686;5.138;2023-05-23T05:33:20;19.20;;;6.33;;
77061;SDS011;65989;51.686;5.138;2023-05-23T05:35:48;14.40;;;5.50;;
77061;SDS011;65989;51.686;5.138;2023-05-23T05:38:13;16.73;;;5.30;;
77061;SDS011;65989;51.686;5.138;2023-05-23T05:40:38;18.00;;;5.80;;
77061;SDS011;65989;51.686;5.138;2023-05-23T05:43:04;19.57;;;4.73;;
77061;SDS011;65989;51.686;5.138;2023-05-23T05:45:29;13.60;;;5.30;;
77061;SDS011;65989;51.686;5.138;2023-05-23T05:47:54;18.50;;;5.50;;
77061;SDS011;65989;51.686;5.138;2023-05-23T05:50:19;18.90;;;4.90;;
77061;SDS011;65989;51.686;5.138;2023-05-23T05:52:45;18.15;;;4.72;;
77061;SDS011;65989;51.686;5.138;2023-05-23T05:55:10;20.03;;;5.03;;
77061;SDS011;65989;51.686;5.138;2023-05-23T05:57:38;20.10;;;5.30;;
77061;SDS011;65989;51.686;5.138;2023-05-23T06:00:05;15.45;;;5.43;;
77061;SDS011;65989;51.686;5.138;2023-05-23T06:02:36;12.93;;;5.22;;
77061;SDS011;65989;51.686;5.138;2023-05-23T06:05:01;15.83;;;5.60;;
77061;SDS011;65989;51.686;5.138;2023-05-23T06:07:27;15.97;;;5.50;;
77061;SDS011;65989;51.686;5.138;2023-05-23T06:09:52;17.67;;;5.10;;
77061;SDS011;65989;51.686;5.138;2023-05-23T06:12:17;13.83;;;4.70;;
77061;SDS011;65989;51.686;5.138;2023-05-23T06:14:42;15.07;;;4.87;;
77061;SDS011;65989;51.686;5.138;2023-05-23T06:17:08;18.63;;;5.73;;
77061;SDS011;65989;51.686;5.138;2023-05-23T06:19:33;17.10;;;6.03;;
77061;SDS011;65989;51.686;5.138;2023-05-23T06:21:58;14.43;;;5.47;;
77061;SDS011;65989;51.686;5.138;2023-05-23T06:24:24;21.70;;;5.70;;
77061;SDS011;65989;51.686;5.138;2023-05-23T06:26:49;16.70;;;6.00;;
77061;SDS011;65989;51.686;5.138;2023-05-23T06:29:14;15.80;;;5.27;;
77061;SDS011;65989;51.686;5.138;2023-05-23T06:31:40;16.50;;;5.37;;
77061;SDS011;65989;51.686;5.138;2023-05-23T06:34:05;17.20;;;5.37;;
77061;SDS011;65989;51.686;5.138;2023-05-23T06:36:30;15.43;;;5.13;;
77061;SDS011;65989;51.686;5.138;2023-05-23T06:38:55;16.17;;;4.93;;
77061;SDS011;65989;51.686;5.138;2023-05-23T06:41:21;15.37;;;5.03;;
77061;SDS011;65989;51.686;5.138;2023-05-23T06:43:46;17.83;;;5.03;;
77061;SDS011;65989;51.686;5.138;2023-05-23T06:46:12;19.27;;;5.47;;
77061;SDS011;65989;51.686;5.138;2023-05-23T06:48:37;13.37;;;5.13;;
77061;SDS011;65989;51.686;5.138;2023-05-23T06:51:02;19.03;;;5.60;;
77061;SDS011;65989;51.686;5.138;2023-05-23T06:53:27;17.77;;;5.30;;
77061;SDS011;65989;51.686;5.138;2023-05-23T06:55:53;15.20;;;5.63;;
77061;SDS011;65989;51.686;5.138;2023-05-23T06:58:18;14.23;;;5.30;;
77061;SDS011;65989;51.686;5.138;2023-05-23T07:00:43;17.93;;;5.67;;
77061;SDS011;65989;51.686;5.138;2023-05-23T07:03:08;15.07;;;4.93;;
77061;SDS011;65989;51.686;5.138;2023-05-23T07:05:34;14.47;;;5.13;;
77061;SDS011;65989;51.686;5.138;2023-05-23T07:08:00;20.92;;;6.00;;
77061;SDS011;65989;51.686;5.138;2023-05-23T07:10:26;19.30;;;6.03;;
77061;SDS011;65989;51.686;5.138;2023-05-23T07:12:51;16.70;;;5.90;;
77061;SDS011;65989;51.686;5.138;2023-05-23T07:15:16;19.93;;;6.67;;
77061;SDS011;65989;51.686;5.138;2023-05-23T07:17:42;16.33;;;6.33;;
77061;SDS011;65989;51.686;5.138;2023-05-23T07:20:07;21.27;;;6.70;;
77061;SDS011;65989;51.686;5.138;2023-05-23T07:22:32;17.20;;;6.53;;
77061;SDS011;65989;51.686;5.138;2023-05-23T07:24:58;17.75;;;5.68;;
77061;SDS011;65989;51.686;5.138;2023-05-23T07:27:23;17.90;;;5.60;;
77061;SDS011;65989;51.686;5.138;2023-05-23T07:29:48;15.73;;;5.40;;
77061;SDS011;65989;51.686;5.138;2023-05-23T07:32:14;13.97;;;5.10;;
77061;SDS011;65989;51.686;5.138;2023-05-23T07:34:40;15.73;;;5.20;;
77061;SDS011;65989;51.686;5.138;2023-05-23T07:37:05;14.97;;;4.97;;
77061;SDS011;65989;51.686;5.138;2023-05-23T07:39:30;17.43;;;5.27;;
77061;SDS011;65989;51.686;5.138;2023-05-23T07:41:55;13.63;;;4.97;;
77061;SDS011;65989;51.686;5.138;2023-05-23T07:44:21;13.03;;;5.47;;
77061;SDS011;65989;51.686;5.138;2023-05-23T07:46:46;11.73;;;5.30;;
77061;SDS011;65989;51.686;5.138;2023-05-23T07:49:11;13.57;;;5.23;;
77061;SDS011;65989;51.686;5.138;2023-05-23T07:51:37;15.63;;;5.33;;
77061;SDS011;65989;51.686;5.138;2023-05-23T07:54:02;14.47;;;5.50;;
77061;SDS011;65989;51.686;5.138;2023-05-23T07:56:27;20.13;;;5.60;;
77061;SDS011;65989;51.686;5.138;2023-05-23T07:58:52;13.37;;;5.10;;
77061;SDS011;65989;51.686;5.138;2023-05-23T08:01:18;14.60;;;5.80;;
77061;SDS011;65989;51.686;5.138;2023-05-23T08:03:44;18.83;;;5.60;;
77061;SDS011;65989;51.686;5.138;2023-05-23T08:06:09;14.00;;;5.00;;
77061;SDS011;65989;51.686;5.138;2023-05-23T08:08:34;14.67;;;5.00;;
77061;SDS011;65989;51.686;5.138;2023-05-23T08:11:00;15.20;;;4.70;;
77061;SDS011;65989;51.686;5.138;2023-05-23T08:13:25;14.00;;;4.60;;
77061;SDS011;65989;51.686;5.138;2023-05-23T08:15:50;14.80;;;3.50;;
77061;SDS011;65989;51.686;5.138;2023-05-23T08:18:15;9.33;;;3.50;;
77061;SDS011;65989;51.686;5.138;2023-05-23T08:20:41;7.25;;;3.05;;
77061;SDS011;65989;51.686;5.138;2023-05-23T08:23:07;10.97;;;3.60;;
77061;SDS011;65989;51.686;5.138;2023-05-23T08:25:32;12.40;;;3.40;;
77061;SDS011;65989;51.686;5.138;2023-05-23T08:27:58;13.10;;;3.30;;
77061;SDS011;65989;51.686;5.138;2023-05-23T08:30:23;12.10;;;3.40;;
77061;SDS011;65989;51.686;5.138;2023-05-23T08:32:50;9.35;;;2.65;;
77061;SDS011;65989;51.686;5.138;2023-05-23T08:35:15;11.25;;;2.60;;
77061;SDS011;65989;51.686;5.138;2023-05-23T08:37:40;8.13;;;2.23;;
77061;SDS011;65989;51.686;5.138;2023-05-23T08:40:07;10.50;;;2.75;;
77061;SDS011;65989;51.686;5.138;2023-05-23T08:42:37;9.25;;;2.42;;
77061;SDS011;65989;51.686;5.138;2023-05-23T08:45:02;11.17;;;2.73;;
77061;SDS011;65989;51.686;5.138;2023-05-23T08:47:28;14.37;;;2.77;;
77061;SDS011;65989;51.686;5.138;2023-05-23T08:49:56;11.23;;;2.90;;
77061;SDS011;65989;51.686;5.138;2023-05-23T08:52:22;18.58;;;2.90;;
77061;SDS011;65989;51.686;5.138;2023-05-23T08:54:48;10.93;;;2.72;;
77061;SDS011;65989;51.686;5.138;2023-05-23T08:57:14;8.37;;;2.70;;
77061;SDS011;65989;51.686;5.138;2023-05-23T08:59:40;14.07;;;3.33;;
77061;SDS011;65989;51.686;5.138;2023-05-23T09:02:07;21.80;;;3.33;;
77061;SDS011;65989;51.686;5.138;2023-05-23T09:04:34;15.18;;;3.00;;
77061;SDS011;65989;51.686;5.138;2023-05-23T09:07:00;15.73;;;3.00;;
77061;SDS011;65989;51.686;5.138;2023-05-23T09:09:26;10.23;;;2.53;;
77061;SDS011;65989;51.686;5.138;2023-05-23T09:11:53;14.87;;;3.53;;
77061;SDS011;65989;51.686;5.138;2023-05-23T09:14:19;19.17;;;2.85;;
77061;SDS011;65989;51.686;5.138;2023-05-23T09:16:47;14.37;;;3.00;;
77061;SDS011;65989;51.686;5.138;2023-05-23T09:19:13;17.13;;;3.03;;
77061;SDS011;65989;51.686;5.138;2023-05-23T09:21:44;12.17;;;2.70;;
77061;SDS011;65989;51.686;5.138;2023-05-23T09:24:10;13.13;;;2.95;;
77061;SDS011;65989;51.686;5.138;2023-05-23T09:26:36;16.20;;;3.13;;
77061;SDS011;65989;51.686;5.138;2023-05-23T09:29:03;13.10;;;2.57;;
77061;SDS011;65989;51.686;5.138;2023-05-23T09:31:29;15.70;;;3.03;;
77061;SDS011;65989;51.686;5.138;2023-05-23T09:33:56;14.82;;;2.67;;
77061;SDS011;65989;51.686;5.138;2023-05-23T09:36:21;17.90;;;3.00;;
77061;SDS011;65989;51.686;5.138;2023-05-23T09:38:47;17.67;;;3.33;;
77061;SDS011;65989;51.686;5.138;2023-05-23T09:41:18;19.57;;;3.20;;
77061;SDS011;65989;51.686;5.138;2023-05-23T09:43:50;18.55;;;3.63;;
77061;SDS011;65989;51.686;5.138;2023-05-23T09:46:16;16.73;;;3.42;;
77061;SDS011;65989;51.686;5.138;2023-05-23T09:48:46;18.73;;;3.72;;
77061;SDS011;65989;51.686;5.138;2023-05-23T09:51:11;16.48;;;3.40;;
77061;SDS011;65989;51.686;5.138;2023-05-23T09:53:36;16.87;;;3.00;;
77061;SDS011;65989;51.686;5.138;2023-05-23T09:56:02;18.73;;;3.10;;
77061;SDS011;65989;51.686;5.138;2023-05-23T09:58:28;18.27;;;3.40;;
77061;SDS011;65989;51.686;5.138;2023-05-23T10:00:55;12.00;;;3.03;;
77061;SDS011;65989;51.686;5.138;2023-05-23T10:03:22;12.45;;;2.97;;
77061;SDS011;65989;51.686;5.138;2023-05-23T10:05:49;11.18;;;2.85;;
77061;SDS011;65989;51.686;5.138;2023-05-23T10:11:07;13.47;;;3.60;;
77061;SDS011;65989;51.686;5.138;2023-05-23T10:13:31;18.83;;;3.50;;
77061;SDS011;65989;51.686;5.138;2023-05-23T10:15:58;14.60;;;3.22;;
77061;SDS011;65989;51.686;5.138;2023-05-23T10:18:25;13.77;;;3.15;;
77061;SDS011;65989;51.686;5.138;2023-05-23T10:20:53;16.33;;;3.00;;
77061;SDS011;65989;51.686;5.138;2023-05-23T10:23:20;13.20;;;2.92;;
77061;SDS011;65989;51.686;5.138;2023-05-23T10:25:46;12.83;;;3.10;;
77061;SDS011;65989;51.686;5.138;2023-05-23T10:28:12;15.37;;;3.00;;
77061;SDS011;65989;51.686;5.138;2023-05-23T10:30:37;9.82;;;2.83;;
77061;SDS011;65989;51.686;5.138;2023-05-23T10:33:03;15.97;;;3.20;;
77061;SDS011;65989;51.686;5.138;2023-05-23T10:35:46;14.70;;;3.50;;
77061;SDS011;65989;51.686;5.138;2023-05-23T10:38:29;12.90;;;2.83;;
77061;SDS011;65989;51.686;5.138;2023-05-23T10:40:59;12.48;;;3.40;;
77061;SDS011;65989;51.686;5.138;2023-05-23T10:43:30;15.10;;;2.83;;
77061;SDS011;65989;51.686;5.138;2023-05-23T10:45:58;12.95;;;3.22;;
77061;SDS011;65989;51.686;5.138;2023-05-23T10:53:29;13.57;;;2.85;;
77061;SDS011;65989;51.686;5.138;2023-05-23T10:55:55;11.05;;;2.60;;
77061;SDS011;65989;51.686;5.138;2023-05-23T10:58:20;12.87;;;2.70;;
77061;SDS011;65989;51.686;5.138;2023-05-23T11:00:53;9.18;;;2.60;;
77061;SDS011;65989;51.686;5.138;2023-05-23T11:03:52;15.63;;;3.33;;
77061;SDS011;65989;51.686;5.138;2023-05-23T11:09:02;15.13;;;2.70;;
77061;SDS011;65989;51.686;5.138;2023-05-23T11:14:11;10.40;;;2.45;;
77061;SDS011;65989;51.686;5.138;2023-05-23T11:16:40;10.33;;;2.80;;
77061;SDS011;65989;51.686;5.138;2023-05-23T11:21:40;13.25;;;3.40;;
77061;SDS011;65989;51.686;5.138;2023-05-23T11:24:08;14.23;;;3.17;;
77061;SDS011;65989;51.686;5.138;2023-05-23T11:32:39;13.52;;;2.40;;
77061;SDS011;65989;51.686;5.138;2023-05-23T11:35:05;11.63;;;2.57;;
77061;SDS011;65989;51.686;5.138;2023-05-23T11:43:48;10.93;;;2.97;;
77061;SDS011;65989;51.686;5.138;2023-05-23T11:46:14;9.87;;;2.80;;
77061;SDS011;65989;51.686;5.138;2023-05-23T11:48:43;12.30;;;2.78;;
77061;SDS011;65989;51.686;5.138;2023-05-23T11:51:08;11.70;;;3.20;;
77061;SDS011;65989;51.686;5.138;2023-05-23T11:53:33;9.93;;;2.77;;
77061;SDS011;65989;51.686;5.138;2023-05-23T11:56:00;10.73;;;2.60;;
77061;SDS011;65989;51.686;5.138;2023-05-23T11:58:28;11.40;;;2.58;;
77061;SDS011;65989;51.686;5.138;2023-05-23T12:01:00;22.45;;;2.97;;
77061;SDS011;65989;51.686;5.138;2023-05-23T12:03:25;11.50;;;2.67;;
77061;SDS011;65989;51.686;5.138;2023-05-23T12:05:50;12.10;;;2.67;;
77061;SDS011;65989;51.686;5.138;2023-05-23T12:08:15;10.50;;;3.23;;
77061;SDS011;65989;51.686;5.138;2023-05-23T12:10:51;17.93;;;3.17;;
77061;SDS011;65989;51.686;5.138;2023-05-23T12:13:17;12.10;;;2.60;;
77061;SDS011;65989;51.686;5.138;2023-05-23T12:15:42;11.45;;;2.38;;
77061;SDS011;65989;51.686;5.138;2023-05-23T12:18:07;11.00;;;3.13;;
77061;SDS011;65989;51.686;5.138;2023-05-23T12:20:32;11.83;;;3.00;;
77061;SDS011;65989;51.686;5.138;2023-05-23T12:23:02;13.45;;;3.00;;
77061;SDS011;65989;51.686;5.138;2023-05-23T12:25:28;12.27;;;2.57;;
77061;SDS011;65989;51.686;5.138;2023-05-23T12:27:54;10.55;;;2.70;;
77061;SDS011;65989;51.686;5.138;2023-05-23T12:30:20;16.75;;;3.10;;
77061;SDS011;65989;51.686;5.138;2023-05-23T12:32:45;17.73;;;3.10;;
77061;SDS011;65989;51.686;5.138;2023-05-23T12:35:12;18.37;;;3.60;;
77061;SDS011;65989;51.686;5.138;2023-05-23T12:37:44;13.07;;;3.05;;
77061;SDS011;65989;51.686;5.138;2023-05-23T12:40:15;15.13;;;3.22;;
77061;SDS011;65989;51.686;5.138;2023-05-23T12:45:12;12.73;;;3.28;;
77061;SDS011;65989;51.686;5.138;2023-05-23T12:47:37;11.03;;;2.70;;
77061;SDS011;65989;51.686;5.138;2023-05-23T12:50:02;11.77;;;3.00;;
77061;SDS011;65989;51.686;5.138;2023-05-23T12:52:28;13.73;;;3.00;;
77061;SDS011;65989;51.686;5.138;2023-05-23T12:54:53;7.03;;;2.50;;
77061;SDS011;65989;51.686;5.138;2023-05-23T12:57:18;10.40;;;2.77;;
77061;SDS011;65989;51.686;5.138;2023-05-23T12:59:43;11.63;;;2.80;;
77061;SDS011;65989;51.686;5.138;2023-05-23T13:02:09;12.07;;;2.70;;
77061;SDS011;65989;51.686;5.138;2023-05-23T13:04:35;13.38;;;2.92;;
77061;SDS011;65989;51.686;5.138;2023-05-23T13:07:00;14.67;;;3.03;;
77061;SDS011;65989;51.686;5.138;2023-05-23T13:09:25;11.13;;;2.77;;
77061;SDS011;65989;51.686;5.138;2023-05-23T13:11:50;11.63;;;2.80;;
77061;SDS011;65989;51.686;5.138;2023-05-23T13:14:16;14.43;;;3.15;;
77061;SDS011;65989;51.686;5.138;2023-05-23T13:16:42;13.47;;;3.17;;
77061;SDS011;65989;51.686;5.138;2023-05-23T13:19:08;11.70;;;2.90;;
77061;SDS011;65989;51.686;5.138;2023-05-23T13:21:34;16.27;;;3.63;;
77061;SDS011;65989;51.686;5.138;2023-05-23T13:24:00;16.60;;;3.40;;
77061;SDS011;65989;51.686;5.138;2023-05-23T13:26:25;13.00;;;3.00;;
77061;SDS011;65989;51.686;5.138;2023-05-23T13:28:50;10.10;;;2.60;;
77061;SDS011;65989;51.686;5.138;2023-05-23T13:31:15;11.37;;;2.90;;
77061;SDS011;65989;51.686;5.138;2023-05-23T13:33:41;14.33;;;3.23;;
77061;SDS011;65989;51.686;5.138;2023-05-23T13:36:06;10.47;;;2.87;;
77061;SDS011;65989;51.686;5.138;2023-05-23T13:38:31;17.90;;;3.00;;
77061;SDS011;65989;51.686;5.138;2023-05-23T13:40:57;12.50;;;2.87;;
77061;SDS011;65989;51.686;5.138;2023-05-23T13:43:22;11.17;;;2.67;;
77061;SDS011;65989;51.686;5.138;2023-05-23T13:45:48;10.90;;;2.95;;
77061;SDS011;65989;51.686;5.138;2023-05-23T13:48:13;15.80;;;3.60;;
77061;SDS011;65989;51.686;5.138;2023-05-23T13:50:38;14.37;;;3.57;;
77061;SDS011;65989;51.686;5.138;2023-05-23T13:53:04;13.17;;;3.37;;
77061;SDS011;65989;51.686;5.138;2023-05-23T13:55:36;11.25;;;3.00;;
77061;SDS011;65989;51.686;5.138;2023-05-23T13:58:01;16.57;;;3.20;;
77061;SDS011;65989;51.686;5.138;2023-05-23T14:00:26;19.07;;;3.87;;
77061;SDS011;65989;51.686;5.138;2023-05-23T14:02:52;10.47;;;2.83;;
77061;SDS011;65989;51.686;5.138;2023-05-23T14:05:17;11.30;;;3.70;;
77061;SDS011;65989;51.686;5.138;2023-05-23T14:07:43;15.87;;;3.27;;
77061;SDS011;65989;51.686;5.138;2023-05-23T14:10:11;12.40;;;2.88;;
77061;SDS011;65989;51.686;5.138;2023-05-23T14:12:36;13.03;;;3.07;;
77061;SDS011;65989;51.686;5.138;2023-05-23T14:15:01;17.17;;;3.03;;
77061;SDS011;65989;51.686;5.138;2023-05-23T14:17:27;12.20;;;2.97;;
77061;SDS011;65989;51.686;5.138;2023-05-23T14:19:52;12.37;;;2.70;;
77061;SDS011;65989;51.686;5.138;2023-05-23T14:22:17;14.90;;;3.03;;
77061;SDS011;65989;51.686;5.138;2023-05-23T14:24:43;9.87;;;2.70;;
77061;SDS011;65989;51.686;5.138;2023-05-23T14:27:08;12.47;;;3.10;;
77061;SDS011;65989;51.686;5.138;2023-05-23T14:29:33;12.60;;;3.00;;
77061;SDS011;65989;51.686;5.138;2023-05-23T14:31:59;12.13;;;2.60;;
77061;SDS011;65989;51.686;5.138;2023-05-23T14:34:24;9.77;;;2.73;;
77061;SDS011;65989;51.686;5.138;2023-05-23T14:36:50;11.87;;;2.93;;
77061;SDS011;65989;51.686;5.138;2023-05-23T14:39:15;12.50;;;3.00;;
77061;SDS011;65989;51.686;5.138;2023-05-23T14:41:40;10.30;;;2.83;;
77061;SDS011;65989;51.686;5.138;2023-05-23T14:44:05;16.90;;;3.03;;
77061;SDS011;65989;51.686;5.138;2023-05-23T14:46:31;13.10;;;2.80;;
77061;SDS011;65989;51.686;5.138;2023-05-23T14:48:56;12.13;;;2.83;;
77061;SDS011;65989;51.686;5.138;2023-05-23T14:51:21;13.83;;;3.00;;
77061;SDS011;65989;51.686;5.138;2023-05-23T14:53:47;10.50;;;2.87;;
77061;SDS011;65989;51.686;5.138;2023-05-23T14:56:12;14.27;;;2.60;;
77061;SDS011;65989;51.686;5.138;2023-05-23T14:58:37;12.60;;;3.00;;
77061;SDS011;65989;51.686;5.138;2023-05-23T15:01:05;8.52;;;2.90;;
77061;SDS011;65989;51.686;5.138;2023-05-23T15:03:30;15.23;;;2.80;;
77061;SDS011;65989;51.686;5.138;2023-05-23T15:05:57;15.65;;;3.15;;
77061;SDS011;65989;51.686;5.138;2023-05-23T15:08:22;11.77;;;2.83;;